MSC Maria Saveria — 3FLE8 — position and weather

sailwx.info

Track history (hours):
 
Tides and Currents Weather Stations Pressure Air Temp Water Temp Dewpoint Dewpoint Depression Visibility Wind Speed Wind Dir Waves Ship Positions

MSC Maria Saveria

Last reported at 2015-Jul-02 03:33 UTC. Time now 2015-Jul-02 03:36 UTC.
Position N 35°46' E 014°41'.

Length 366 m; draft 13.7 m.

Type: Ship (hazmat cat A). MMSI: 372400000.

Date/timePositionNaut miles runAvg speedWind from/ knotsBaromVisibWave heightAir tempDewpointWater temp
2015-Jul-02 03:33N 35°46' E 014°41'1716.9
2015-Jul-02 02:33N 35°42' E 015°01'2019.7
2015-Jul-02 01:33N 35°36' E 015°25'2020.0
2015-Jul-02 00:33N 35°31' E 015°48'2020.0
2015-Jul-01 23:33N 35°26' E 016°12'2019.9
2015-Jul-01 22:33N 35°20' E 016°35'2619.7
2015-Jul-01 21:13N 35°13' E 017°06'1419.9
2015-Jul-01 20:32N 35°10' E 017°22'4020.1
2015-Jul-01 18:33N 34°59' E 018°09'  
Track history (hours):
 
Tides and Currents Weather Stations Pressure Air Temp Water Temp Dewpoint Dewpoint Depression Visibility Wind Speed Wind Dir Waves Ship Positions

MSC Maria Saveria

Last reported at 2015-Jul-02 03:33 UTC. Time now 2015-Jul-02 03:36 UTC.
Position N 35°46' E 014°41'.

Length 366 m; draft 13.7 m.

Type: Ship (hazmat cat A). MMSI: 372400000.

Date/timePositionNaut miles runAvg speedWind from/ knotsBaromVisibWave heightAir tempDewpointWater temp
2015-Jul-02 03:33N 35°46' E 014°41'1716.9
2015-Jul-02 02:33N 35°42' E 015°01'2019.7
2015-Jul-02 01:33N 35°36' E 015°25'2020.0
2015-Jul-02 00:33N 35°31' E 015°48'2020.0
2015-Jul-01 23:33N 35°26' E 016°12'2019.9
2015-Jul-01 22:33N 35°20' E 016°35'2619.7
2015-Jul-01 21:13N 35°13' E 017°06'1419.9
2015-Jul-01 20:32N 35°10' E 017°22'4020.1
2015-Jul-01 18:33N 34°59' E 018°09'  

Dump ship's entire track history